sensor_id;sensor_type;location;lat;lon;timestamp;P1;durP1;ratioP1;P2;durP2;ratioP2
577;SDS011;275;48.492;9.214;2023-08-06T00:01:29;6.60;;;5.20;;
577;SDS011;275;48.492;9.214;2023-08-06T00:03:56;7.20;;;5.10;;
577;SDS011;275;48.492;9.214;2023-08-06T00:06:25;7.33;;;5.27;;
577;SDS011;275;48.492;9.214;2023-08-06T00:08:53;6.90;;;6.20;;
577;SDS011;275;48.492;9.214;2023-08-06T00:11:20;5.47;;;4.97;;
577;SDS011;275;48.492;9.214;2023-08-06T00:13:47;6.03;;;5.43;;
577;SDS011;275;48.492;9.214;2023-08-06T00:16:13;7.40;;;5.87;;
577;SDS011;275;48.492;9.214;2023-08-06T00:18:40;5.67;;;5.20;;
577;SDS011;275;48.492;9.214;2023-08-06T00:21:07;7.33;;;6.30;;
577;SDS011;275;48.492;9.214;2023-08-06T00:23:34;6.30;;;5.70;;
577;SDS011;275;48.492;9.214;2023-08-06T00:26:02;5.50;;;4.90;;
577;SDS011;275;48.492;9.214;2023-08-06T00:28:29;5.90;;;5.30;;
577;SDS011;275;48.492;9.214;2023-08-06T00:30:56;5.73;;;5.23;;
577;SDS011;275;48.492;9.214;2023-08-06T00:33:23;5.60;;;5.07;;
577;SDS011;275;48.492;9.214;2023-08-06T00:35:50;6.20;;;5.63;;
577;SDS011;275;48.492;9.214;2023-08-06T00:38:17;6.33;;;5.07;;
577;SDS011;275;48.492;9.214;2023-08-06T00:40:44;7.80;;;5.50;;
577;SDS011;275;48.492;9.214;2023-08-06T00:43:12;5.67;;;5.17;;
577;SDS011;275;48.492;9.214;2023-08-06T00:45:39;5.27;;;4.70;;
577;SDS011;275;48.492;9.214;2023-08-06T00:48:06;5.20;;;4.63;;
577;SDS011;275;48.492;9.214;2023-08-06T00:50:33;4.80;;;4.40;;
577;SDS011;275;48.492;9.214;2023-08-06T00:53:00;5.10;;;4.60;;
577;SDS011;275;48.492;9.214;2023-08-06T00:55:28;6.03;;;5.53;;
577;SDS011;275;48.492;9.214;2023-08-06T00:57:55;4.27;;;3.87;;
577;SDS011;275;48.492;9.214;2023-08-06T01:00:24;4.30;;;3.30;;
577;SDS011;275;48.492;9.214;2023-08-06T01:02:52;3.63;;;3.00;;
577;SDS011;275;48.492;9.214;2023-08-06T01:05:20;3.80;;;3.40;;
577;SDS011;275;48.492;9.214;2023-08-06T01:07:56;4.73;;;2.97;;
577;SDS011;275;48.492;9.214;2023-08-06T01:10:40;4.43;;;2.83;;
577;SDS011;275;48.492;9.214;2023-08-06T01:13:18;3.23;;;2.53;;
577;SDS011;275;48.492;9.214;2023-08-06T01:15:56;6.53;;;2.70;;
577;SDS011;275;48.492;9.214;2023-08-06T01:18:25;4.50;;;2.73;;
577;SDS011;275;48.492;9.214;2023-08-06T01:20:53;3.53;;;2.57;;
577;SDS011;275;48.492;9.214;2023-08-06T01:23:20;3.20;;;2.23;;
577;SDS011;275;48.492;9.214;2023-08-06T01:25:49;4.93;;;3.00;;
577;SDS011;275;48.492;9.214;2023-08-06T01:28:29;3.93;;;2.60;;
577;SDS011;275;48.492;9.214;2023-08-06T01:31:03;4.13;;;2.93;;
577;SDS011;275;48.492;9.214;2023-08-06T01:33:35;6.07;;;3.10;;
577;SDS011;275;48.492;9.214;2023-08-06T01:36:10;4.80;;;3.10;;
577;SDS011;275;48.492;9.214;2023-08-06T01:38:38;5.63;;;3.10;;
577;SDS011;275;48.492;9.214;2023-08-06T01:41:05;4.47;;;3.20;;
577;SDS011;275;48.492;9.214;2023-08-06T01:43:32;6.10;;;2.63;;
577;SDS011;275;48.492;9.214;2023-08-06T01:45:58;4.40;;;2.93;;
577;SDS011;275;48.492;9.214;2023-08-06T01:48:25;4.10;;;3.20;;
577;SDS011;275;48.492;9.214;2023-08-06T01:50:52;5.20;;;3.30;;
577;SDS011;275;48.492;9.214;2023-08-06T01:53:20;5.97;;;3.70;;
577;SDS011;275;48.492;9.214;2023-08-06T01:55:47;6.73;;;3.50;;
577;SDS011;275;48.492;9.214;2023-08-06T01:58:14;3.83;;;2.90;;
577;SDS011;275;48.492;9.214;2023-08-06T02:00:41;5.50;;;4.03;;
577;SDS011;275;48.492;9.214;2023-08-06T02:03:08;6.20;;;3.87;;
577;SDS011;275;48.492;9.214;2023-08-06T02:05:35;6.33;;;3.47;;
577;SDS011;275;48.492;9.214;2023-08-06T02:08:01;6.30;;;4.47;;
577;SDS011;275;48.492;9.214;2023-08-06T02:10:29;4.87;;;3.20;;
577;SDS011;275;48.492;9.214;2023-08-06T02:12:56;5.23;;;3.33;;
577;SDS011;275;48.492;9.214;2023-08-06T02:15:23;4.23;;;3.20;;
577;SDS011;275;48.492;9.214;2023-08-06T02:17:50;7.30;;;4.10;;
577;SDS011;275;48.492;9.214;2023-08-06T02:20:17;6.07;;;3.70;;
577;SDS011;275;48.492;9.214;2023-08-06T02:22:43;4.93;;;3.97;;
577;SDS011;275;48.492;9.214;2023-08-06T02:25:10;4.80;;;3.57;;
577;SDS011;275;48.492;9.214;2023-08-06T02:27:38;4.07;;;3.40;;
577;SDS011;275;48.492;9.214;2023-08-06T02:30:06;4.87;;;3.37;;
577;SDS011;275;48.492;9.214;2023-08-06T02:32:33;4.07;;;3.30;;
577;SDS011;275;48.492;9.214;2023-08-06T02:35:01;4.43;;;3.63;;
577;SDS011;275;48.492;9.214;2023-08-06T02:37:28;4.87;;;3.17;;
577;SDS011;275;48.492;9.214;2023-08-06T02:39:54;4.43;;;3.23;;
577;SDS011;275;48.492;9.214;2023-08-06T02:42:21;5.07;;;3.77;;
577;SDS011;275;48.492;9.214;2023-08-06T02:44:50;4.43;;;3.17;;
577;SDS011;275;48.492;9.214;2023-08-06T02:47:17;5.40;;;3.20;;
577;SDS011;275;48.492;9.214;2023-08-06T02:49:44;4.70;;;3.00;;
577;SDS011;275;48.492;9.214;2023-08-06T02:52:10;4.63;;;2.90;;
577;SDS011;275;48.492;9.214;2023-08-06T02:54:37;4.30;;;3.10;;
577;SDS011;275;48.492;9.214;2023-08-06T02:57:05;4.90;;;3.03;;
577;SDS011;275;48.492;9.214;2023-08-06T02:59:32;4.00;;;3.10;;
577;SDS011;275;48.492;9.214;2023-08-06T03:02:01;3.87;;;3.07;;
577;SDS011;275;48.492;9.214;2023-08-06T03:04:28;5.70;;;3.43;;
577;SDS011;275;48.492;9.214;2023-08-06T03:06:54;3.50;;;2.70;;
577;SDS011;275;48.492;9.214;2023-08-06T03:09:22;6.57;;;2.80;;
577;SDS011;275;48.492;9.214;2023-08-06T03:11:49;4.10;;;3.23;;
577;SDS011;275;48.492;9.214;2023-08-06T03:14:15;3.80;;;2.90;;
577;SDS011;275;48.492;9.214;2023-08-06T03:16:42;3.97;;;2.60;;
577;SDS011;275;48.492;9.214;2023-08-06T03:19:10;3.97;;;2.40;;
577;SDS011;275;48.492;9.214;2023-08-06T03:21:37;3.70;;;2.50;;
577;SDS011;275;48.492;9.214;2023-08-06T03:24:04;4.10;;;2.50;;
577;SDS011;275;48.492;9.214;2023-08-06T03:26:31;5.40;;;2.43;;
577;SDS011;275;48.492;9.214;2023-08-06T03:28:57;3.77;;;2.27;;
577;SDS011;275;48.492;9.214;2023-08-06T03:31:24;3.87;;;2.57;;
577;SDS011;275;48.492;9.214;2023-08-06T03:33:51;4.00;;;2.90;;
577;SDS011;275;48.492;9.214;2023-08-06T03:36:19;3.70;;;2.33;;
577;SDS011;275;48.492;9.214;2023-08-06T03:38:46;5.90;;;2.90;;
577;SDS011;275;48.492;9.214;2023-08-06T03:41:13;5.80;;;2.30;;
577;SDS011;275;48.492;9.214;2023-08-06T03:43:40;4.60;;;2.30;;
577;SDS011;275;48.492;9.214;2023-08-06T03:46:07;3.33;;;1.93;;
577;SDS011;275;48.492;9.214;2023-08-06T03:48:33;3.10;;;1.90;;
577;SDS011;275;48.492;9.214;2023-08-06T03:51:00;6.43;;;1.63;;
577;SDS011;275;48.492;9.214;2023-08-06T03:53:28;3.83;;;1.70;;
577;SDS011;275;48.492;9.214;2023-08-06T03:55:55;5.13;;;2.07;;
577;SDS011;275;48.492;9.214;2023-08-06T03:58:24;4.67;;;1.80;;
577;SDS011;275;48.492;9.214;2023-08-06T04:00:57;4.50;;;2.03;;
577;SDS011;275;48.492;9.214;2023-08-06T04:03:24;6.73;;;2.10;;
577;SDS011;275;48.492;9.214;2023-08-06T04:05:51;3.97;;;2.10;;
577;SDS011;275;48.492;9.214;2023-08-06T04:08:18;5.77;;;2.20;;
577;SDS011;275;48.492;9.214;2023-08-06T04:10:48;5.67;;;1.93;;
577;SDS011;275;48.492;9.214;2023-08-06T04:13:15;5.00;;;1.73;;
577;SDS011;275;48.492;9.214;2023-08-06T04:15:42;4.60;;;2.30;;
577;SDS011;275;48.492;9.214;2023-08-06T04:18:09;5.10;;;2.57;;
577;SDS011;275;48.492;9.214;2023-08-06T04:20:42;4.10;;;2.53;;
577;SDS011;275;48.492;9.214;2023-08-06T04:23:09;5.37;;;2.43;;
577;SDS011;275;48.492;9.214;2023-08-06T04:25:35;4.60;;;2.47;;
577;SDS011;275;48.492;9.214;2023-08-06T04:28:04;4.47;;;2.70;;
577;SDS011;275;48.492;9.214;2023-08-06T04:30:30;5.97;;;2.70;;
577;SDS011;275;48.492;9.214;2023-08-06T04:32:57;4.53;;;2.80;;
577;SDS011;275;48.492;9.214;2023-08-06T04:35:24;4.60;;;2.63;;
577;SDS011;275;48.492;9.214;2023-08-06T04:37:51;4.50;;;2.80;;
577;SDS011;275;48.492;9.214;2023-08-06T04:40:18;4.60;;;2.43;;
577;SDS011;275;48.492;9.214;2023-08-06T04:42:44;4.90;;;2.27;;
577;SDS011;275;48.492;9.214;2023-08-06T04:45:13;5.30;;;2.40;;
577;SDS011;275;48.492;9.214;2023-08-06T04:47:39;4.13;;;2.30;;
577;SDS011;275;48.492;9.214;2023-08-06T04:50:06;5.03;;;2.40;;
577;SDS011;275;48.492;9.214;2023-08-06T04:52:33;3.23;;;1.80;;
577;SDS011;275;48.492;9.214;2023-08-06T04:55:01;3.30;;;1.70;;
577;SDS011;275;48.492;9.214;2023-08-06T04:57:30;3.67;;;1.60;;
577;SDS011;275;48.492;9.214;2023-08-06T04:59:57;2.67;;;1.43;;
577;SDS011;275;48.492;9.214;2023-08-06T05:02:25;4.13;;;1.70;;
577;SDS011;275;48.492;9.214;2023-08-06T05:04:52;3.83;;;1.73;;
577;SDS011;275;48.492;9.214;2023-08-06T05:07:19;4.30;;;1.50;;
577;SDS011;275;48.492;9.214;2023-08-06T05:09:46;4.40;;;2.03;;
577;SDS011;275;48.492;9.214;2023-08-06T05:12:12;4.20;;;2.00;;
577;SDS011;275;48.492;9.214;2023-08-06T05:14:39;2.70;;;1.33;;
577;SDS011;275;48.492;9.214;2023-08-06T05:17:06;5.13;;;2.27;;
577;SDS011;275;48.492;9.214;2023-08-06T05:19:34;3.00;;;1.70;;
577;SDS011;275;48.492;9.214;2023-08-06T05:22:01;3.77;;;1.77;;
577;SDS011;275;48.492;9.214;2023-08-06T05:24:28;3.43;;;1.27;;
577;SDS011;275;48.492;9.214;2023-08-06T05:26:55;2.90;;;1.50;;
577;SDS011;275;48.492;9.214;2023-08-06T05:29:22;4.03;;;1.50;;
577;SDS011;275;48.492;9.214;2023-08-06T05:31:48;4.30;;;1.90;;
577;SDS011;275;48.492;9.214;2023-08-06T05:34:15;3.70;;;1.10;;
577;SDS011;275;48.492;9.214;2023-08-06T05:36:43;3.30;;;1.07;;
577;SDS011;275;48.492;9.214;2023-08-06T05:39:10;4.00;;;1.50;;
577;SDS011;275;48.492;9.214;2023-08-06T05:41:37;3.47;;;1.10;;
577;SDS011;275;48.492;9.214;2023-08-06T05:44:04;2.40;;;0.97;;
577;SDS011;275;48.492;9.214;2023-08-06T05:46:31;3.17;;;1.10;;
577;SDS011;275;48.492;9.214;2023-08-06T05:48:57;3.50;;;1.43;;
577;SDS011;275;48.492;9.214;2023-08-06T05:51:25;3.20;;;1.00;;
577;SDS011;275;48.492;9.214;2023-08-06T05:53:54;5.73;;;0.97;;
577;SDS011;275;48.492;9.214;2023-08-06T05:56:20;3.73;;;1.27;;
577;SDS011;275;48.492;9.214;2023-08-06T05:58:47;3.10;;;1.00;;
577;SDS011;275;48.492;9.214;2023-08-06T06:01:16;3.90;;;1.00;;
577;SDS011;275;48.492;9.214;2023-08-06T06:03:43;4.00;;;1.10;;
577;SDS011;275;48.492;9.214;2023-08-06T06:06:10;2.70;;;1.00;;
577;SDS011;275;48.492;9.214;2023-08-06T06:08:36;4.27;;;1.00;;
577;SDS011;275;48.492;9.214;2023-08-06T06:11:04;2.53;;;0.93;;
577;SDS011;275;48.492;9.214;2023-08-06T06:13:31;2.40;;;0.87;;
577;SDS011;275;48.492;9.214;2023-08-06T06:15:58;2.50;;;1.00;;
577;SDS011;275;48.492;9.214;2023-08-06T06:18:25;2.40;;;0.90;;
577;SDS011;275;48.492;9.214;2023-08-06T06:20:52;3.73;;;0.80;;
577;SDS011;275;48.492;9.214;2023-08-06T06:23:18;4.00;;;1.27;;
577;SDS011;275;48.492;9.214;2023-08-06T06:25:47;3.87;;;1.30;;
577;SDS011;275;48.492;9.214;2023-08-06T06:28:17;3.47;;;1.00;;
577;SDS011;275;48.492;9.214;2023-08-06T06:30:44;3.30;;;0.93;;
577;SDS011;275;48.492;9.214;2023-08-06T06:33:11;3.00;;;1.10;;
577;SDS011;275;48.492;9.214;2023-08-06T06:35:38;3.37;;;0.87;;
577;SDS011;275;48.492;9.214;2023-08-06T06:38:05;4.30;;;1.43;;
577;SDS011;275;48.492;9.214;2023-08-06T06:40:32;2.57;;;0.90;;
577;SDS011;275;48.492;9.214;2023-08-06T06:42:59;2.50;;;0.90;;
577;SDS011;275;48.492;9.214;2023-08-06T06:45:27;4.70;;;0.90;;
577;SDS011;275;48.492;9.214;2023-08-06T06:47:54;3.30;;;1.30;;
577;SDS011;275;48.492;9.214;2023-08-06T06:50:21;2.20;;;0.73;;
577;SDS011;275;48.492;9.214;2023-08-06T06:52:48;3.73;;;1.10;;
577;SDS011;275;48.492;9.214;2023-08-06T06:55:14;3.17;;;0.73;;
577;SDS011;275;48.492;9.214;2023-08-06T06:57:41;2.33;;;0.80;;
577;SDS011;275;48.492;9.214;2023-08-06T07:00:09;2.43;;;0.80;;
577;SDS011;275;48.492;9.214;2023-08-06T07:02:37;2.30;;;0.70;;
577;SDS011;275;48.492;9.214;2023-08-06T07:05:05;3.00;;;0.80;;
577;SDS011;275;48.492;9.214;2023-08-06T07:07:32;2.20;;;0.80;;
577;SDS011;275;48.492;9.214;2023-08-06T07:10:00;3.80;;;1.20;;
577;SDS011;275;48.492;9.214;2023-08-06T07:12:27;2.43;;;0.63;;
577;SDS011;275;48.492;9.214;2023-08-06T07:14:54;2.23;;;0.60;;
577;SDS011;275;48.492;9.214;2023-08-06T07:17:21;2.10;;;0.57;;
577;SDS011;275;48.492;9.214;2023-08-06T07:19:49;2.37;;;0.70;;
577;SDS011;275;48.492;9.214;2023-08-06T07:22:17;2.93;;;0.90;;
577;SDS011;275;48.492;9.214;2023-08-06T07:24:43;2.53;;;0.70;;
577;SDS011;275;48.492;9.214;2023-08-06T07:27:10;2.50;;;0.60;;
577;SDS011;275;48.492;9.214;2023-08-06T07:29:37;3.70;;;0.80;;
577;SDS011;275;48.492;9.214;2023-08-06T07:32:05;2.40;;;0.60;;
577;SDS011;275;48.492;9.214;2023-08-06T07:34:33;2.77;;;0.70;;
577;SDS011;275;48.492;9.214;2023-08-06T07:37:01;3.90;;;0.80;;
577;SDS011;275;48.492;9.214;2023-08-06T07:39:28;2.90;;;0.80;;
577;SDS011;275;48.492;9.214;2023-08-06T07:41:55;2.30;;;0.60;;
577;SDS011;275;48.492;9.214;2023-08-06T07:44:21;2.83;;;0.80;;
577;SDS011;275;48.492;9.214;2023-08-06T07:46:48;2.10;;;0.60;;
577;SDS011;275;48.492;9.214;2023-08-06T07:49:15;2.00;;;0.50;;
577;SDS011;275;48.492;9.214;2023-08-06T07:51:42;2.10;;;0.50;;
577;SDS011;275;48.492;9.214;2023-08-06T07:54:11;2.20;;;0.50;;
577;SDS011;275;48.492;9.214;2023-08-06T07:56:38;2.10;;;0.47;;
577;SDS011;275;48.492;9.214;2023-08-06T07:59:05;2.10;;;0.70;;
577;SDS011;275;48.492;9.214;2023-08-06T08:01:31;2.20;;;0.60;;
577;SDS011;275;48.492;9.214;2023-08-06T08:03:58;2.50;;;0.70;;
577;SDS011;275;48.492;9.214;2023-08-06T08:06:25;1.93;;;0.40;;
577;SDS011;275;48.492;9.214;2023-08-06T08:08:52;2.20;;;0.50;;
577;SDS011;275;48.492;9.214;2023-08-06T08:11:20;2.10;;;0.50;;
577;SDS011;275;48.492;9.214;2023-08-06T08:13:47;2.10;;;0.60;;
577;SDS011;275;48.492;9.214;2023-08-06T08:16:14;2.50;;;0.60;;
577;SDS011;275;48.492;9.214;2023-08-06T08:18:41;2.50;;;0.70;;
577;SDS011;275;48.492;9.214;2023-08-06T08:21:08;2.30;;;0.60;;
577;SDS011;275;48.492;9.214;2023-08-06T08:23:35;2.70;;;0.70;;
577;SDS011;275;48.492;9.214;2023-08-06T08:26:04;2.10;;;0.60;;
577;SDS011;275;48.492;9.214;2023-08-06T08:28:32;2.00;;;0.40;;
577;SDS011;275;48.492;9.214;2023-08-06T08:30:59;2.97;;;0.63;;
577;SDS011;275;48.492;9.214;2023-08-06T08:33:25;2.00;;;0.60;;
577;SDS011;275;48.492;9.214;2023-08-06T08:35:52;2.57;;;0.50;;
577;SDS011;275;48.492;9.214;2023-08-06T08:38:19;1.97;;;0.50;;
577;SDS011;275;48.492;9.214;2023-08-06T08:40:46;2.07;;;0.60;;
577;SDS011;275;48.492;9.214;2023-08-06T08:43:19;2.43;;;0.80;;
577;SDS011;275;48.492;9.214;2023-08-06T08:45:49;2.63;;;0.57;;
577;SDS011;275;48.492;9.214;2023-08-06T08:48:17;2.40;;;0.50;;
577;SDS011;275;48.492;9.214;2023-08-06T08:50:45;2.87;;;0.83;;
577;SDS011;275;48.492;9.214;2023-08-06T08:53:15;2.00;;;0.57;;
577;SDS011;275;48.492;9.214;2023-08-06T08:55:43;3.30;;;0.60;;
577;SDS011;275;48.492;9.214;2023-08-06T08:58:13;2.17;;;0.50;;
577;SDS011;275;48.492;9.214;2023-08-06T09:00:40;2.10;;;0.57;;
577;SDS011;275;48.492;9.214;2023-08-06T09:03:10;2.10;;;0.50;;
577;SDS011;275;48.492;9.214;2023-08-06T09:05:37;2.10;;;0.50;;
577;SDS011;275;48.492;9.214;2023-08-06T09:08:10;2.20;;;0.60;;
577;SDS011;275;48.492;9.214;2023-08-06T09:10:41;2.37;;;0.50;;
577;SDS011;275;48.492;9.214;2023-08-06T09:13:09;2.27;;;0.67;;
577;SDS011;275;48.492;9.214;2023-08-06T09:15:37;2.83;;;0.70;;
577;SDS011;275;48.492;9.214;2023-08-06T09:18:10;2.63;;;0.50;;
577;SDS011;275;48.492;9.214;2023-08-06T09:20:37;2.20;;;0.50;;
577;SDS011;275;48.492;9.214;2023-08-06T09:23:06;2.47;;;0.50;;
577;SDS011;275;48.492;9.214;2023-08-06T09:25:36;2.80;;;0.50;;
577;SDS011;275;48.492;9.214;2023-08-06T09:28:05;2.17;;;0.60;;
577;SDS011;275;48.492;9.214;2023-08-06T09:30:33;2.60;;;0.63;;
577;SDS011;275;48.492;9.214;2023-08-06T09:33:02;2.20;;;0.50;;
577;SDS011;275;48.492;9.214;2023-08-06T09:35:30;2.20;;;0.50;;
577;SDS011;275;48.492;9.214;2023-08-06T09:38:04;2.30;;;0.70;;
577;SDS011;275;48.492;9.214;2023-08-06T09:40:33;2.10;;;0.50;;
577;SDS011;275;48.492;9.214;2023-08-06T09:43:00;2.17;;;0.40;;
577;SDS011;275;48.492;9.214;2023-08-06T09:45:28;2.20;;;0.50;;
577;SDS011;275;48.492;9.214;2023-08-06T09:47:56;2.23;;;0.40;;
577;SDS011;275;48.492;9.214;2023-08-06T09:50:25;2.30;;;0.57;;
577;SDS011;275;48.492;9.214;2023-08-06T09:52:58;2.23;;;0.60;;
577;SDS011;275;48.492;9.214;2023-08-06T09:55:25;2.53;;;0.70;;
577;SDS011;275;48.492;9.214;2023-08-06T09:57:52;2.13;;;0.60;;
577;SDS011;275;48.492;9.214;2023-08-06T10:00:20;2.30;;;0.50;;
577;SDS011;275;48.492;9.214;2023-08-06T10:02:47;2.00;;;0.50;;
577;SDS011;275;48.492;9.214;2023-08-06T10:05:15;2.43;;;0.43;;
577;SDS011;275;48.492;9.214;2023-08-06T10:07:42;1.97;;;0.40;;
577;SDS011;275;48.492;9.214;2023-08-06T10:10:11;2.20;;;0.50;;
577;SDS011;275;48.492;9.214;2023-08-06T10:12:39;2.03;;;0.50;;
577;SDS011;275;48.492;9.214;2023-08-06T10:15:09;2.17;;;0.50;;
577;SDS011;275;48.492;9.214;2023-08-06T10:17:40;2.07;;;0.50;;
577;SDS011;275;48.492;9.214;2023-08-06T10:20:08;2.20;;;0.50;;
577;SDS011;275;48.492;9.214;2023-08-06T10:22:35;1.80;;;0.40;;
577;SDS011;275;48.492;9.214;2023-08-06T10:25:02;2.30;;;0.60;;
577;SDS011;275;48.492;9.214;2023-08-06T10:27:32;2.10;;;0.60;;
577;SDS011;275;48.492;9.214;2023-08-06T10:32:50;2.00;;;0.50;;
577;SDS011;275;48.492;9.214;2023-08-06T10:35:28;1.70;;;0.40;;
577;SDS011;275;48.492;9.214;2023-08-06T10:38:04;2.00;;;0.60;;
577;SDS011;275;48.492;9.214;2023-08-06T10:40:33;1.73;;;0.47;;
577;SDS011;275;48.492;9.214;2023-08-06T10:43:01;2.00;;;0.60;;
577;SDS011;275;48.492;9.214;2023-08-06T10:45:29;2.20;;;0.57;;
577;SDS011;275;48.492;9.214;2023-08-06T10:48:00;2.00;;;0.70;;
577;SDS011;275;48.492;9.214;2023-08-06T10:50:26;2.30;;;0.60;;
577;SDS011;275;48.492;9.214;2023-08-06T10:52:53;2.00;;;0.60;;
577;SDS011;275;48.492;9.214;2023-08-06T10:55:24;2.00;;;0.53;;
577;SDS011;275;48.492;9.214;2023-08-06T10:57:52;1.90;;;0.60;;
577;SDS011;275;48.492;9.214;2023-08-06T11:00:21;1.80;;;0.47;;
577;SDS011;275;48.492;9.214;2023-08-06T11:02:49;2.00;;;0.60;;
577;SDS011;275;48.492;9.214;2023-08-06T11:05:16;1.90;;;0.50;;
577;SDS011;275;48.492;9.214;2023-08-06T11:07:43;1.80;;;0.50;;
577;SDS011;275;48.492;9.214;2023-08-06T11:10:13;1.80;;;0.40;;
577;SDS011;275;48.492;9.214;2023-08-06T11:12:40;2.57;;;0.67;;
577;SDS011;275;48.492;9.214;2023-08-06T11:15:07;2.00;;;0.50;;
577;SDS011;275;48.492;9.214;2023-08-06T11:17:39;2.40;;;0.60;;
577;SDS011;275;48.492;9.214;2023-08-06T11:20:07;2.00;;;0.50;;
577;SDS011;275;48.492;9.214;2023-08-06T11:22:35;2.33;;;0.60;;
577;SDS011;275;48.492;9.214;2023-08-06T11:25:03;1.70;;;0.43;;
577;SDS011;275;48.492;9.214;2023-08-06T11:27:31;2.20;;;0.60;;
577;SDS011;275;48.492;9.214;2023-08-06T11:29:58;2.00;;;0.60;;
577;SDS011;275;48.492;9.214;2023-08-06T11:32:25;2.37;;;0.50;;
577;SDS011;275;48.492;9.214;2023-08-06T11:34:54;1.90;;;0.50;;
577;SDS011;275;48.492;9.214;2023-08-06T11:37:22;1.90;;;0.60;;
577;SDS011;275;48.492;9.214;2023-08-06T11:39:50;3.10;;;0.60;;
577;SDS011;275;48.492;9.214;2023-08-06T11:42:17;2.97;;;0.77;;
577;SDS011;275;48.492;9.214;2023-08-06T11:44:45;2.00;;;0.80;;
577;SDS011;275;48.492;9.214;2023-08-06T11:47:12;2.30;;;0.60;;
577;SDS011;275;48.492;9.214;2023-08-06T11:49:41;2.20;;;0.80;;
577;SDS011;275;48.492;9.214;2023-08-06T11:52:13;2.37;;;0.80;;
577;SDS011;275;48.492;9.214;2023-08-06T11:54:41;1.90;;;0.80;;
577;SDS011;275;48.492;9.214;2023-08-06T11:57:08;1.80;;;0.70;;
577;SDS011;275;48.492;9.214;2023-08-06T11:59:37;2.00;;;0.77;;
577;SDS011;275;48.492;9.214;2023-08-06T12:02:04;1.80;;;0.50;;
577;SDS011;275;48.492;9.214;2023-08-06T12:07:30;2.30;;;0.60;;
577;SDS011;275;48.492;9.214;2023-08-06T12:09:58;2.10;;;0.60;;
577;SDS011;275;48.492;9.214;2023-08-06T12:12:25;2.10;;;0.67;;
577;SDS011;275;48.492;9.214;2023-08-06T12:14:53;2.53;;;0.90;;
577;SDS011;275;48.492;9.214;2023-08-06T12:17:21;2.40;;;0.70;;
577;SDS011;275;48.492;9.214;2023-08-06T12:19:48;2.00;;;0.50;;
577;SDS011;275;48.492;9.214;2023-08-06T12:22:15;2.40;;;0.90;;
577;SDS011;275;48.492;9.214;2023-08-06T12:24:44;2.00;;;0.70;;
577;SDS011;275;48.492;9.214;2023-08-06T12:27:13;2.10;;;0.70;;
577;SDS011;275;48.492;9.214;2023-08-06T12:29:43;2.20;;;0.80;;
577;SDS011;275;48.492;9.214;2023-08-06T12:32:11;2.10;;;0.87;;
577;SDS011;275;48.492;9.214;2023-08-06T12:34:39;3.03;;;1.00;;
577;SDS011;275;48.492;9.214;2023-08-06T12:37:06;2.40;;;1.00;;
577;SDS011;275;48.492;9.214;2023-08-06T12:39:34;2.20;;;0.90;;
577;SDS011;275;48.492;9.214;2023-08-06T12:42:02;3.10;;;1.10;;
577;SDS011;275;48.492;9.214;2023-08-06T12:44:30;2.63;;;1.23;;
577;SDS011;275;48.492;9.214;2023-08-06T12:46:57;2.90;;;1.40;;
577;SDS011;275;48.492;9.214;2023-08-06T12:49:24;2.57;;;1.10;;
577;SDS011;275;48.492;9.214;2023-08-06T12:51:52;3.10;;;1.00;;
577;SDS011;275;48.492;9.214;2023-08-06T12:54:19;3.00;;;0.97;;
577;SDS011;275;48.492;9.214;2023-08-06T12:56:47;2.90;;;1.40;;
577;SDS011;275;48.492;9.214;2023-08-06T12:59:17;2.70;;;1.07;;
577;SDS011;275;48.492;9.214;2023-08-06T13:01:44;4.23;;;1.27;;
577;SDS011;275;48.492;9.214;2023-08-06T13:04:11;3.17;;;1.00;;
577;SDS011;275;48.492;9.214;2023-08-06T13:06:38;2.87;;;1.20;;
577;SDS011;275;48.492;9.214;2023-08-06T13:09:05;2.80;;;1.10;;
577;SDS011;275;48.492;9.214;2023-08-06T13:11:33;2.77;;;1.20;;
577;SDS011;275;48.492;9.214;2023-08-06T13:14:04;3.63;;;1.00;;
577;SDS011;275;48.492;9.214;2023-08-06T13:16:33;2.93;;;1.23;;
577;SDS011;275;48.492;9.214;2023-08-06T13:19:00;3.10;;;1.10;;
577;SDS011;275;48.492;9.214;2023-08-06T13:21:31;2.83;;;1.30;;
577;SDS011;275;48.492;9.214;2023-08-06T13:23:59;2.93;;;1.40;;
577;SDS011;275;48.492;9.214;2023-08-06T13:26:26;3.37;;;1.30;;
577;SDS011;275;48.492;9.214;2023-08-06T13:28:53;2.47;;;0.93;;
577;SDS011;275;48.492;9.214;2023-08-06T13:31:20;3.73;;;1.20;;
577;SDS011;275;48.492;9.214;2023-08-06T13:33:48;2.90;;;1.07;;
577;SDS011;275;48.492;9.214;2023-08-06T13:36:15;3.13;;;1.00;;
577;SDS011;275;48.492;9.214;2023-08-06T13:38:42;2.90;;;0.83;;
577;SDS011;275;48.492;9.214;2023-08-06T13:41:09;2.30;;;0.90;;
577;SDS011;275;48.492;9.214;2023-08-06T13:43:38;2.50;;;0.80;;
577;SDS011;275;48.492;9.214;2023-08-06T13:46:05;2.23;;;0.73;;
577;SDS011;275;48.492;9.214;2023-08-06T13:48:32;2.50;;;1.00;;
577;SDS011;275;48.492;9.214;2023-08-06T13:51:00;2.50;;;0.90;;
577;SDS011;275;48.492;9.214;2023-08-06T13:53:27;2.40;;;0.60;;
577;SDS011;275;48.492;9.214;2023-08-06T13:55:55;2.30;;;0.70;;
577;SDS011;275;48.492;9.214;2023-08-06T13:58:22;2.27;;;0.83;;
577;SDS011;275;48.492;9.214;2023-08-06T14:00:50;2.67;;;1.10;;
577;SDS011;275;48.492;9.214;2023-08-06T14:03:18;2.20;;;0.73;;
577;SDS011;275;48.492;9.214;2023-08-06T14:05:45;3.80;;;0.83;;
577;SDS011;275;48.492;9.214;2023-08-06T14:08:13;2.83;;;0.87;;
577;SDS011;275;48.492;9.214;2023-08-06T14:10:40;2.77;;;0.70;;
577;SDS011;275;48.492;9.214;2023-08-06T14:13:07;2.40;;;1.00;;
577;SDS011;275;48.492;9.214;2023-08-06T14:15:33;2.73;;;0.60;;
577;SDS011;275;48.492;9.214;2023-08-06T14:18:00;2.30;;;0.83;;
577;SDS011;275;48.492;9.214;2023-08-06T14:20:27;4.13;;;0.90;;
577;SDS011;275;48.492;9.214;2023-08-06T14:22:54;2.50;;;1.00;;
577;SDS011;275;48.492;9.214;2023-08-06T14:25:22;2.43;;;0.70;;
577;SDS011;275;48.492;9.214;2023-08-06T14:27:49;2.30;;;0.70;;
577;SDS011;275;48.492;9.214;2023-08-06T14:30:16;2.57;;;0.73;;
577;SDS011;275;48.492;9.214;2023-08-06T14:32:43;2.37;;;0.67;;
577;SDS011;275;48.492;9.214;2023-08-06T14:35:10;2.67;;;0.70;;
577;SDS011;275;48.492;9.214;2023-08-06T14:37:37;3.23;;;0.80;;
577;SDS011;275;48.492;9.214;2023-08-06T14:40:04;2.20;;;0.80;;
577;SDS011;275;48.492;9.214;2023-08-06T14:42:33;2.40;;;0.70;;
577;SDS011;275;48.492;9.214;2023-08-06T14:45:00;2.30;;;0.80;;
577;SDS011;275;48.492;9.214;2023-08-06T14:47:28;2.40;;;0.67;;
577;SDS011;275;48.492;9.214;2023-08-06T14:49:55;2.20;;;0.80;;
577;SDS011;275;48.492;9.214;2023-08-06T14:52:22;2.50;;;0.63;;
577;SDS011;275;48.492;9.214;2023-08-06T14:54:49;2.30;;;0.63;;
577;SDS011;275;48.492;9.214;2023-08-06T14:57:17;2.20;;;0.60;;
577;SDS011;275;48.492;9.214;2023-08-06T14:59:45;2.60;;;0.70;;
577;SDS011;275;48.492;9.214;2023-08-06T15:02:12;2.50;;;0.60;;
577;SDS011;275;48.492;9.214;2023-08-06T15:04:39;2.07;;;0.60;;
577;SDS011;275;48.492;9.214;2023-08-06T15:07:06;2.20;;;0.50;;
577;SDS011;275;48.492;9.214;2023-08-06T15:09:34;2.30;;;0.60;;
577;SDS011;275;48.492;9.214;2023-08-06T15:12:01;2.50;;;0.67;;
577;SDS011;275;48.492;9.214;2023-08-06T15:14:28;2.40;;;0.70;;
577;SDS011;275;48.492;9.214;2023-08-06T15:16:57;2.40;;;0.90;;
577;SDS011;275;48.492;9.214;2023-08-06T15:19:24;3.03;;;1.17;;
577;SDS011;275;48.492;9.214;2023-08-06T15:21:51;2.73;;;0.87;;
577;SDS011;275;48.492;9.214;2023-08-06T15:24:18;2.20;;;0.60;;
577;SDS011;275;48.492;9.214;2023-08-06T15:26:44;2.10;;;0.60;;
577;SDS011;275;48.492;9.214;2023-08-06T15:29:11;2.33;;;0.73;;
577;SDS011;275;48.492;9.214;2023-08-06T15:31:38;2.27;;;0.80;;
577;SDS011;275;48.492;9.214;2023-08-06T15:34:07;2.50;;;0.77;;
577;SDS011;275;48.492;9.214;2023-08-06T15:36:34;2.63;;;0.77;;
577;SDS011;275;48.492;9.214;2023-08-06T15:39:01;2.43;;;0.83;;
577;SDS011;275;48.492;9.214;2023-08-06T15:41:29;2.93;;;0.87;;
577;SDS011;275;48.492;9.214;2023-08-06T15:43:55;2.60;;;1.00;;
577;SDS011;275;48.492;9.214;2023-08-06T15:46:22;2.73;;;0.80;;
577;SDS011;275;48.492;9.214;2023-08-06T15:48:49;3.20;;;1.00;;
577;SDS011;275;48.492;9.214;2023-08-06T15:51:17;2.60;;;0.80;;
577;SDS011;275;48.492;9.214;2023-08-06T15:53:44;2.60;;;0.97;;